CYQX

Gander International Airport

Gander, Canada
TAF CYQX 171138Z 1712/1812 22007KT P6SM FEW240 BECMG 1712/1714 19008KT BECMG 1716/1718 16008KT FM172200 13012KT P6SM BKN015 OVC025 FM180200 13012KT 6SM -SN OVC012 FM180400 12015G25KT 11/2SM -SN VV008 PROB30 1804/1807 3/4SM -SN OVC004 FM180700 12020G35KT 2SM -SNPL OVC004 PROB30 1807/1810 3SM -FZRA BR FM181000 12025G35KT 11/2SM -RA BR OVC003 RMK NXT FCST BY 171800Z
Issued Valid From Valid To
Dec-17 @ 11:38 UTC
(an hour ago)
Dec-17 @ 12:00 UTC
(an hour ago)
Dec-18 @ 12:00 UTC
(in 23 hours)
Dec-17 @ 12:00 to Dec-18 @ 12:00
TAF CYQX 171138Z 1712/1812 22007KT P6SM FEW240
Wind Visibility Clouds
220° at 7 knots Greater than 6 miles
  • Few at 24,000' AGL
Becoming Dec-17 @ 12:00 to Dec-17 @ 16:00
BECMG 1712/1714 19008KT
Wind Visibility Clouds
190° at 8 knots Greater than 6 miles
  • Few at 24,000' AGL
Becoming Dec-17 @ 16:00 to Dec-17 @ 22:00
BECMG 1716/1718 16008KT
Wind Visibility Clouds
160° at 8 knots Greater than 6 miles
  • Few at 24,000' AGL
From Dec-17 @ 22:00 to Dec-18 @ 02:00
FM172200 13012KT P6SM BKN015 OVC025
Wind Visibility Clouds
130° at 12 knots Greater than 6 miles
  • Broken at 1,500' AGL
  • Overcast at 2,500' AGL
From Dec-18 @ 02:00 to Dec-18 @ 04:00
FM180200 13012KT 6SM -SN OVC012
Wind Visibility Clouds Conditions
130° at 12 knots 6 miles
  • Overcast at 1,200' AGL
  • Light Snow
From Dec-18 @ 04:00 to Dec-18 @ 07:00
FM180400 12015G25KT 11/2SM -SN VV008
Wind Visibility Clouds Conditions
120° at 15 knots
 Gusting to 25 knots
1 1/2 miles
  • Vertical visibility at 800' AGL
  • Light Snow
Probable  (Probability 30%) Dec-18 @ 04:00 to Dec-18 @ 07:00
PROB30 1804/1807 3/4SM -SN OVC004
Visibility Clouds Conditions
3/4 miles
  • Overcast at 400' AGL
  • Light Snow
From Dec-18 @ 07:00 to Dec-18 @ 10:00
FM180700 12020G35KT 2SM -SNPL OVC004
Wind Visibility Clouds Conditions
120° at 20 knots
 Gusting to 35 knots
2 miles
  • Overcast at 400' AGL
  • Light Snow
Probable  (Probability 30%) Dec-18 @ 07:00 to Dec-18 @ 10:00
PROB30 1807/1810 3SM -FZRA BR
Visibility Conditions
3 miles
  • Light Freezing
  • Light Rain
  • Mist
From Dec-18 @ 10:00 to Dec-18 @ 12:00
FM181000 12025G35KT 11/2SM -RA BR OVC003 RMK NXT FCST BY 171800Z
Wind Visibility Clouds Conditions
120° at 25 knots
 Gusting to 35 knots
1 1/2 miles
  • Overcast at 300' AGL
  • Light Rain
  • Mist
TAF CYQX 171138Z 1712/1812 22007KT P6SM FEW240 BECMG 1712/1714 19008KT BECMG 1716/1718 16008KT FM172200 13012KT P6SM BKN015 OVC025 FM180200 13012KT 6SM -SN OVC012 FM180400 12015G25KT 11/2SM -SN VV008 PROB30 1804/1807 3/4SM -SN OVC004 FM180700 12020G35KT 2SM -SNPL OVC004 PROB30 1807/1810 3SM -FZRA BR FM181000 12025G35KT 11/2SM -RA BR OVC003 RMK NXT FCST BY 171800Z
Issued Dec-17 @ 11:38 UTC
(an hour ago)
Valid From Dec-17 @ 12:00 UTC
(an hour ago)
Valid To Dec-18 @ 12:00 UTC
(in 23 hours)
Dec-17 @ 12:00 - Dec-18 @ 12:00
Wind Visibility
220° at 7 knots Greater than 6 miles
Clouds
  • Few at 24,000' AGL
Becoming Dec-17 @ 12:00 - Dec-17 @ 16:00
Wind Visibility
190° at 8 knots Greater than 6 miles
Clouds
  • Few at 24,000' AGL
Becoming Dec-17 @ 16:00 - Dec-17 @ 22:00
Wind Visibility
160° at 8 knots Greater than 6 miles
Clouds
  • Few at 24,000' AGL
From Dec-17 @ 22:00 - Dec-18 @ 02:00
Wind Visibility
130° at 12 knots Greater than 6 miles
Clouds
  • Broken at 1,500' AGL
  • Overcast at 2,500' AGL
From Dec-18 @ 02:00 - Dec-18 @ 04:00
Wind Visibility
130° at 12 knots 6 miles
Clouds
  • Overcast at 1,200' AGL
Conditions
  • Light Snow
From Dec-18 @ 04:00 - Dec-18 @ 07:00
Wind Visibility
120° at 15 knots
 Gusting to 25 knots
1 1/2 miles
Clouds
  • Vertical visibility at 800' AGL
Conditions
  • Light Snow
Probability 30% Probable Dec-18 @ 04:00 - Dec-18 @ 07:00
Clouds
  • Overcast at 400' AGL
Conditions
  • Light Snow
From Dec-18 @ 07:00 - Dec-18 @ 10:00
Wind Visibility
120° at 20 knots
 Gusting to 35 knots
2 miles
Clouds
  • Overcast at 400' AGL
Conditions
  • Light Snow
Probability 30% Probable Dec-18 @ 07:00 - Dec-18 @ 10:00
Conditions
  • Light Freezing
  • Light Rain
  • Mist
From Dec-18 @ 10:00 - Dec-18 @ 12:00
Wind Visibility
120° at 25 knots
 Gusting to 35 knots
1 1/2 miles
Clouds
  • Overcast at 300' AGL
Conditions
  • Light Rain
  • Mist